Time;durP1;ratioP1;P1;durP2;ratioP2;P2;SDS_P1;SDS_P2;PMS_P1;PMS_P2;Temp;Humidity;BMP_temperature;BMP_pressure;BME280_temperature;BME280_humidity;BME280_pressure;Samples;Min_cycle;Max_cycle;Signal;HPM_P1;HPM_P2
2022/02/17 00:00:34;;;;;;;0.30;0.30;;;;;;;12.17;89.79;97419.63;5033635;28;20390;-54
2022/02/17 00:03:00;;;;;;;0.30;0.30;;;;;;;12.18;89.53;97425.81;5035276;28;20060;-55
2022/02/17 00:05:25;;;;;;;0.60;0.60;;;;;;;12.14;90.20;97417.56;5038198;28;20052;-55
2022/02/17 00:07:51;;;;;;;1.65;0.50;;;;;;;12.22;89.40;97424.91;5031958;28;20037;-56
2022/02/17 00:10:17;;;;;;;0.65;0.47;;;;;;;12.14;90.24;97419.44;5030460;28;20738;-55
2022/02/17 00:12:43;;;;;;;0.68;0.52;;;;;;;12.05;91.07;97419.31;5030531;28;20391;-55
2022/02/17 00:15:08;;;;;;;0.50;0.50;;;;;;;12.07;90.13;97401.81;5033655;28;20036;-55
2022/02/17 00:17:34;;;;;;;0.55;0.55;;;;;;;12.04;90.81;97407.78;5031489;28;20064;-54
2022/02/17 00:20:00;;;;;;;0.30;0.30;;;;;;;12.08;90.34;97407.97;5037804;28;20043;-55
2022/02/17 00:22:25;;;;;;;2.00;0.47;;;;;;;12.10;90.39;97408.50;5030279;28;20033;-55
2022/02/17 00:24:51;;;;;;;0.40;0.40;;;;;;;12.08;90.57;97399.94;5035322;28;20418;-54
2022/02/17 00:27:17;;;;;;;0.52;0.43;;;;;;;12.08;90.24;97402.63;5031256;28;20037;-55
2022/02/17 00:29:42;;;;;;;0.30;0.30;;;;;;;12.02;91.00;97393.84;5030384;28;20033;-55
2022/02/17 00:32:07;;;;;;;1.42;0.50;;;;;;;11.96;91.52;97386.22;5027954;28;20044;-55
2022/02/17 00:34:33;;;;;;;0.60;0.60;;;;;;;11.94;91.47;97374.97;5030684;28;20026;-54
2022/02/17 00:36:59;;;;;;;0.65;0.50;;;;;;;11.92;91.59;97394.03;5040318;28;20502;-55
2022/02/17 00:39:24;;;;;;;0.57;0.50;;;;;;;12.04;90.00;97393.56;5042060;28;20806;-56
2022/02/17 00:41:50;;;;;;;0.85;0.30;;;;;;;12.05;89.89;97381.72;5051761;28;20041;-55
2022/02/17 00:44:16;;;;;;;1.02;0.57;;;;;;;12.11;88.89;97390.50;5035309;28;20119;-54
2022/02/17 00:46:41;;;;;;;1.45;0.40;;;;;;;12.24;87.64;97374.38;5029186;28;20091;-55
2022/02/17 00:49:06;;;;;;;0.40;0.40;;;;;;;12.23;87.80;97374.69;5029759;28;20201;-56
2022/02/17 00:51:33;;;;;;;3.20;0.30;;;;;;;12.18;88.49;97402.44;5037233;28;20045;-55
2022/02/17 00:53:59;;;;;;;0.30;0.30;;;;;;;12.16;88.37;97391.22;5034545;28;20047;-54
2022/02/17 00:56:24;;;;;;;1.52;0.38;;;;;;;12.17;88.30;97395.47;5040362;28;20405;-55
2022/02/17 00:58:50;;;;;;;0.40;0.40;;;;;;;12.16;87.78;97377.78;5036680;28;20427;-54
2022/02/17 01:01:15;;;;;;;1.15;0.68;;;;;;;12.33;85.35;97366.44;5035041;28;20037;-55
2022/02/17 01:03:41;;;;;;;0.28;0.28;;;;;;;12.26;86.44;97385.63;5035110;28;20026;-54
2022/02/17 01:06:06;;;;;;;0.60;0.40;;;;;;;12.33;84.43;97371.81;5036594;28;20127;-55
2022/02/17 01:08:31;;;;;;;2.05;0.30;;;;;;;12.25;84.65;97377.88;5029145;28;20026;-56
2022/02/17 01:10:57;;;;;;;0.35;0.25;;;;;;;12.25;84.89;97402.84;5035621;28;20041;-56
2022/02/17 01:13:23;;;;;;;0.20;0.20;;;;;;;12.26;83.78;97393.69;5030181;28;20316;-55
2022/02/17 01:15:49;;;;;;;0.20;0.20;;;;;;;12.33;82.80;97395.19;5028694;28;20124;-56
2022/02/17 01:18:15;;;;;;;0.40;0.40;;;;;;;12.28;83.24;97391.50;5036260;28;20115;-54
2022/02/17 01:20:41;;;;;;;0.40;0.40;;;;;;;12.19;84.98;97406.72;5032468;28;20337;-55
2022/02/17 01:23:07;;;;;;;1.17;0.50;;;;;;;12.00;87.70;97395.25;5036563;28;20560;-55
2022/02/17 01:25:32;;;;;;;0.75;0.70;;;;;;;11.81;90.46;97412.19;5028845;28;20557;-55
2022/02/17 01:27:58;;;;;;;2.30;0.90;;;;;;;11.69;91.08;97411.84;5034894;28;20041;-55
2022/02/17 01:30:23;;;;;;;0.68;0.40;;;;;;;11.63;91.47;97413.03;5033894;28;20091;-55
2022/02/17 01:32:49;;;;;;;1.85;0.52;;;;;;;11.64;89.25;97420.00;5037810;28;20034;-56
2022/02/17 01:35:14;;;;;;;0.43;0.43;;;;;;;11.68;88.65;97426.34;5035610;28;20463;-55
2022/02/17 01:37:41;;;;;;;1.27;0.63;;;;;;;12.00;83.96;97427.47;5034428;28;20048;-56
2022/02/17 01:40:07;;;;;;;1.45;0.80;;;;;;;12.06;83.22;97426.31;5032123;28;20541;-55
2022/02/17 01:42:32;;;;;;;0.47;0.47;;;;;;;12.06;83.57;97453.94;5034324;28;20028;-56
2022/02/17 01:45:01;;;;;;;2.40;0.70;;;;;;;11.95;84.97;97468.63;5030692;28;20485;-55
2022/02/17 01:47:26;;;;;;;2.05;0.75;;;;;;;11.63;88.57;97472.06;5028887;28;20045;-55
2022/02/17 01:49:51;;;;;;;1.98;0.60;;;;;;;11.43;90.18;97468.59;5035240;28;20032;-55
2022/02/17 01:52:17;;;;;;;5.63;1.50;;;;;;;11.39;88.69;97488.25;5029109;28;20443;-55
2022/02/17 01:54:44;;;;;;;4.75;1.15;;;;;;;11.39;87.31;97486.34;5034277;28;20045;-55
2022/02/17 01:57:18;;;;;;;5.85;1.98;;;;;;;11.42;81.53;97485.78;5016961;28;20101;-55
2022/02/17 01:59:44;;;;;;;4.25;1.00;;;;;;;11.45;76.97;97487.06;4998818;28;20677;-55
2022/02/17 02:02:09;;;;;;;7.82;1.83;;;;;;;11.32;75.68;97483.25;5011638;28;20042;-56
2022/02/17 02:04:35;;;;;;;7.80;1.95;;;;;;;11.22;72.33;97507.50;5012318;28;20083;-55
2022/02/17 02:07:00;;;;;;;10.52;2.17;;;;;;;11.20;68.92;97497.06;5016447;28;20650;-54
2022/02/17 02:09:26;;;;;;;10.38;2.13;;;;;;;11.05;69.02;97499.16;5013503;28;20033;-54
2022/02/17 02:11:51;;;;;;;8.40;1.90;;;;;;;10.98;68.29;97505.69;5014739;28;20108;-55
2022/02/17 02:14:17;;;;;;;9.55;2.38;;;;;;;10.88;68.69;97505.78;5007404;28;20018;-55
2022/02/17 02:16:44;;;;;;;10.73;2.47;;;;;;;10.79;69.08;97502.16;5006373;28;20046;-55
2022/02/17 02:19:09;;;;;;;9.25;2.42;;;;;;;10.78;68.94;97485.28;5014890;28;20029;-55
2022/02/17 02:21:35;;;;;;;11.13;2.08;;;;;;;10.81;68.92;97508.03;5015254;28;20081;-55
2022/02/17 02:24:01;;;;;;;7.68;1.58;;;;;;;10.67;69.89;97499.06;5015568;28;20111;-56
2022/02/17 02:26:27;;;;;;;11.10;2.30;;;;;;;10.61;71.01;97525.13;5016986;28;20424;-55
2022/02/17 02:28:53;;;;;;;11.00;2.35;;;;;;;10.58;72.14;97529.16;5009123;28;20045;-54
2022/02/17 02:31:19;;;;;;;8.63;2.40;;;;;;;10.48;73.26;97549.88;5021340;28;20064;-55
2022/02/17 02:33:44;;;;;;;9.20;2.00;;;;;;;10.34;74.23;97557.78;5028316;28;20029;-55
2022/02/17 02:36:10;;;;;;;14.93;2.63;;;;;;;10.43;74.20;97549.94;5034335;28;20045;-55
2022/02/17 02:38:35;;;;;;;13.82;2.63;;;;;;;10.29;74.88;97544.44;5032765;28;20206;-54
2022/02/17 02:41:01;;;;;;;8.68;1.98;;;;;;;10.25;75.66;97530.78;5027853;28;20041;-54
2022/02/17 02:43:26;;;;;;;11.90;2.42;;;;;;;10.12;76.31;97542.94;5028285;28;20045;-55
2022/02/17 02:45:51;;;;;;;14.98;2.70;;;;;;;10.20;76.35;97551.44;5042152;28;20048;-56
2022/02/17 02:48:17;;;;;;;17.95;2.85;;;;;;;10.19;76.65;97547.97;5033100;28;20025;-55
2022/02/17 02:50:43;;;;;;;13.43;2.60;;;;;;;10.10;77.14;97565.72;5032185;28;20596;-55
2022/02/17 02:53:14;;;;;;;11.05;2.38;;;;;;;10.20;75.27;97554.13;5030769;28;20026;-56
2022/02/17 02:55:40;;;;;;;10.05;2.13;;;;;;;10.22;75.26;97562.69;5041193;28;20517;-55
2022/02/17 02:58:05;;;;;;;14.10;2.38;;;;;;;10.16;75.41;97580.66;5027058;28;20053;-56
2022/02/17 03:00:31;;;;;;;10.43;2.15;;;;;;;10.18;72.28;97558.94;5032175;28;20049;-55
2022/02/17 03:02:57;;;;;;;10.13;2.42;;;;;;;10.29;69.49;97558.63;5035820;28;20029;-55
2022/02/17 03:05:22;;;;;;;13.95;2.42;;;;;;;10.29;68.63;97585.41;5041762;28;20121;-56
2022/02/17 03:07:47;;;;;;;11.48;2.67;;;;;;;10.28;67.59;97580.31;5029831;28;20040;-54
2022/02/17 03:10:13;;;;;;;13.35;2.70;;;;;;;10.34;67.62;97597.97;5035763;28;20025;-55
2022/02/17 03:12:38;;;;;;;14.63;2.47;;;;;;;10.25;68.13;97599.59;5029526;28;20029;-54
2022/02/17 03:15:04;;;;;;;13.18;2.50;;;;;;;10.28;67.52;97617.81;5030601;28;20041;-55
2022/02/17 03:17:30;;;;;;;8.68;2.30;;;;;;;10.21;67.55;97604.72;5031710;28;20364;-55
2022/02/17 03:19:55;;;;;;;14.48;2.88;;;;;;;10.20;64.91;97629.88;5031713;28;20029;-55
2022/02/17 03:22:21;;;;;;;16.98;3.03;;;;;;;10.14;65.07;97626.44;5027418;28;20052;-55
2022/02/17 03:24:46;;;;;;;16.58;2.42;;;;;;;10.09;65.08;97639.88;5026932;28;20084;-54
2022/02/17 03:27:11;;;;;;;13.90;2.83;;;;;;;10.00;66.31;97633.50;5027494;28;20442;-55
2022/02/17 03:29:37;;;;;;;20.13;3.22;;;;;;;9.97;65.43;97626.03;5026914;28;20053;-54
2022/02/17 03:32:03;;;;;;;16.35;2.90;;;;;;;10.01;65.67;97655.69;5026802;28;20048;-55
2022/02/17 03:34:28;;;;;;;18.60;3.00;;;;;;;10.05;64.54;97643.38;5029236;28;20037;-55
2022/02/17 03:36:54;;;;;;;12.63;2.92;;;;;;;9.95;64.59;97649.59;5036037;28;20041;-54
2022/02/17 03:39:19;;;;;;;15.60;3.17;;;;;;;9.98;64.57;97661.63;5037899;28;20091;-55
2022/02/17 03:41:46;;;;;;;22.92;3.38;;;;;;;9.90;63.79;97687.09;5032125;28;20037;-54
2022/02/17 03:44:12;;;;;;;20.17;3.42;;;;;;;9.87;63.35;97663.56;5027777;28;20044;-55
2022/02/17 03:46:38;;;;;;;27.42;4.30;;;;;;;9.81;63.88;97667.31;5031039;28;20041;-55
2022/02/17 03:49:03;;;;;;;24.13;3.47;;;;;;;9.71;64.13;97689.59;5031856;28;20123;-55
2022/02/17 03:51:29;;;;;;;18.63;3.10;;;;;;;9.70;63.73;97670.03;5035211;28;20044;-56
2022/02/17 03:53:54;;;;;;;20.70;3.78;;;;;;;9.64;62.91;97692.56;5032959;28;20542;-55
2022/02/17 03:56:19;;;;;;;23.08;3.50;;;;;;;9.61;63.43;97703.81;5034450;28;20048;-55
2022/02/17 03:59:04;;;;;;;29.02;4.03;;;;;;;9.63;63.00;97703.50;5034447;28;20337;-55
2022/02/17 04:01:31;;;;;;;18.00;3.22;;;;;;;9.57;63.83;97718.78;5033197;28;20044;-55
2022/02/17 04:03:57;;;;;;;35.60;4.43;;;;;;;9.57;63.45;97723.34;5035635;28;20025;-55
2022/02/17 04:06:23;;;;;;;22.77;3.70;;;;;;;9.50;64.08;97735.13;5032810;28;20063;-56
2022/02/17 04:08:49;;;;;;;25.65;4.25;;;;;;;9.54;63.75;97748.75;5027931;28;20033;-56
2022/02/17 04:11:14;;;;;;;20.98;3.58;;;;;;;9.50;63.86;97756.50;5026987;28;20041;-55
2022/02/17 04:13:39;;;;;;;25.33;3.75;;;;;;;9.60;63.39;97741.50;5027255;28;20029;-54
2022/02/17 04:16:05;;;;;;;28.85;4.32;;;;;;;9.55;63.42;97773.63;5030221;28;20108;-55
2022/02/17 04:18:30;;;;;;;28.58;3.83;;;;;;;9.41;64.67;97765.34;5030139;28;20091;-55
2022/02/17 04:20:56;;;;;;;19.13;3.67;;;;;;;9.50;64.29;97761.84;5032468;28;20046;-55
2022/02/17 04:23:21;;;;;;;32.33;4.28;;;;;;;9.47;64.58;97756.25;5031219;28;20025;-55
2022/02/17 04:25:46;;;;;;;27.83;3.45;;;;;;;9.44;65.08;97759.47;5030636;28;20099;-54
2022/02/17 04:28:12;;;;;;;33.30;4.45;;;;;;;9.39;64.99;97760.28;5037726;28;20517;-55
2022/02/17 04:30:37;;;;;;;22.70;3.88;;;;;;;9.37;64.53;97758.97;5042305;28;20102;-55
2022/02/17 04:33:03;;;;;;;25.10;3.63;;;;;;;9.30;65.15;97756.56;5042197;28;20471;-55
2022/02/17 04:35:29;;;;;;;30.52;3.63;;;;;;;9.33;65.01;97781.94;5036129;28;20041;-55
2022/02/17 04:37:54;;;;;;;28.23;4.35;;;;;;;9.28;64.67;97799.63;5042371;28;20040;-54
2022/02/17 04:40:20;;;;;;;30.85;4.95;;;;;;;9.37;64.45;97804.41;5034278;28;20033;-55
2022/02/17 04:42:45;;;;;;;26.63;3.85;;;;;;;9.23;65.06;97807.63;5035287;28;20052;-56
2022/02/17 04:45:11;;;;;;;24.90;3.90;;;;;;;9.19;65.12;97809.25;5031042;28;20025;-56
2022/02/17 04:47:36;;;;;;;40.85;4.68;;;;;;;9.17;65.92;97816.72;5033437;28;20037;-55
2022/02/17 04:50:02;;;;;;;29.35;4.72;;;;;;;9.12;65.68;97819.38;5038687;28;20036;-55
2022/02/17 04:52:28;;;;;;;28.27;3.75;;;;;;;9.17;64.92;97816.72;5031756;28;20029;-55
2022/02/17 04:54:53;;;;;;;28.90;4.93;;;;;;;9.18;64.37;97820.19;5017210;28;20030;-52
2022/02/17 04:57:19;;;;;;;39.17;4.20;;;;;;;9.19;65.63;97835.19;5031963;28;20044;-56
2022/02/17 04:59:44;;;;;;;26.30;4.40;;;;;;;9.03;65.81;97834.34;5031151;28;20022;-55
2022/02/17 05:02:10;;;;;;;33.55;4.28;;;;;;;9.05;65.70;97834.88;5030904;28;20495;-54
2022/02/17 05:04:36;;;;;;;32.75;4.10;;;;;;;9.21;64.81;97865.09;5037275;28;20196;-54
2022/02/17 05:07:02;;;;;;;34.55;4.57;;;;;;;9.10;64.76;97850.94;5037376;28;20045;-53
2022/02/17 05:09:27;;;;;;;26.33;3.95;;;;;;;9.04;65.04;97846.66;5039249;28;20060;-54
2022/02/17 05:11:53;;;;;;;32.22;5.32;;;;;;;9.10;65.00;97853.59;5029484;28;20052;-54
2022/02/17 05:14:18;;;;;;;32.70;4.60;;;;;;;9.06;65.15;97868.56;5030381;28;20052;-54
2022/02/17 05:16:44;;;;;;;27.13;3.58;;;;;;;8.99;65.40;97870.69;5033872;28;20557;-54
2022/02/17 05:19:10;;;;;;;26.63;4.28;;;;;;;9.10;64.17;97856.28;5036603;28;20041;-55
2022/02/17 05:21:35;;;;;;;31.58;5.05;;;;;;;9.17;64.00;97874.72;5036476;28;20083;-54
2022/02/17 05:24:01;;;;;;;29.95;4.22;;;;;;;9.00;65.33;97873.09;5039013;28;20028;-54
2022/02/17 05:26:26;;;;;;;26.25;5.25;;;;;;;9.18;64.57;97882.47;5035025;28;20068;-54
2022/02/17 05:28:52;;;;;;;35.95;5.18;;;;;;;9.17;64.04;97875.53;5030013;28;20025;-55
2022/02/17 05:31:17;;;;;;;35.10;5.45;;;;;;;9.06;65.32;97879.25;5037503;28;20048;-55
2022/02/17 05:33:42;;;;;;;32.13;4.47;;;;;;;9.06;64.88;97889.94;5041653;28;20260;-56
2022/02/17 05:36:08;;;;;;;34.28;5.32;;;;;;;9.03;66.07;97901.94;5034916;28;20111;-56
2022/02/17 05:38:33;;;;;;;24.35;3.20;;;;;;;8.98;66.71;97909.16;5029954;28;20033;-55
2022/02/17 05:40:59;;;;;;;42.35;5.07;;;;;;;8.95;66.52;97907.81;5028995;28;20041;-55
2022/02/17 05:43:24;;;;;;;33.38;4.78;;;;;;;8.91;66.56;97904.09;5033697;28;20049;-55
2022/02/17 05:45:50;;;;;;;33.40;4.07;;;;;;;8.92;66.43;97899.53;5029123;28;20091;-55
2022/02/17 05:48:15;;;;;;;37.28;4.32;;;;;;;8.79;67.55;97906.19;5036107;28;20545;-55
2022/02/17 05:50:41;;;;;;;40.80;4.85;;;;;;;8.73;68.19;97910.69;5030246;28;20037;-56
2022/02/17 05:53:06;;;;;;;33.45;4.95;;;;;;;8.76;67.23;97917.38;5031503;28;20554;-55
2022/02/17 05:55:32;;;;;;;44.15;5.95;;;;;;;8.79;67.17;97923.03;5034055;28;20052;-55
2022/02/17 05:57:57;;;;;;;41.15;5.72;;;;;;;8.69;69.02;97931.00;5041610;28;20041;-55
2022/02/17 06:00:23;;;;;;;43.13;5.18;;;;;;;8.82;67.75;97927.84;5034236;28;20045;-56
2022/02/17 06:02:48;;;;;;;36.17;5.88;;;;;;;8.77;67.96;97932.38;5031647;28;20040;-55
2022/02/17 06:05:16;;;;;;;50.78;5.63;;;;;;;8.72;68.01;97938.50;5029293;28;20022;-56
2022/02/17 06:07:42;;;;;;;36.28;4.32;;;;;;;8.79;68.34;97943.59;5031023;28;20053;-54
2022/02/17 06:10:08;;;;;;;40.22;5.03;;;;;;;8.88;67.40;97946.56;5030558;28;20033;-56
2022/02/17 06:12:39;;;;;;;39.97;5.35;;;;;;;8.89;66.42;97937.50;5034249;28;20041;-55
2022/02/17 06:15:05;;;;;;;35.00;5.28;;;;;;;8.91;66.62;97956.72;5034374;28;20071;-56
2022/02/17 06:17:30;;;;;;;33.90;5.03;;;;;;;8.87;66.07;97950.31;5032350;28;20080;-54
2022/02/17 06:19:56;;;;;;;35.10;5.32;;;;;;;8.84;65.75;97962.31;5033521;28;20040;-55
2022/02/17 06:22:21;;;;;;;36.83;5.97;;;;;;;8.87;65.91;97959.13;5028319;28;20071;-55
2022/02/17 06:24:47;;;;;;;31.70;5.85;;;;;;;8.87;65.94;97964.47;5028084;28;20029;-54
2022/02/17 06:27:15;;;;;;;36.22;4.63;;;;;;;8.99;65.18;97977.59;5028033;28;20045;-55
2022/02/17 06:29:41;;;;;;;33.92;5.05;;;;;;;8.89;67.58;97990.94;5033863;28;20048;-55
2022/02/17 06:32:06;;;;;;;33.40;4.82;;;;;;;8.89;67.09;98001.63;5028637;28;20087;-56
2022/02/17 06:34:32;;;;;;;38.60;5.32;;;;;;;8.77;67.70;98004.50;5036818;28;20120;-54
2022/02/17 06:36:57;;;;;;;32.97;5.25;;;;;;;8.72;68.10;98015.16;5037373;28;20491;-56
2022/02/17 06:39:23;;;;;;;49.38;6.13;;;;;;;8.67;67.85;98005.25;5033249;28;20041;-56
2022/02/17 06:41:48;;;;;;;31.10;6.10;;;;;;;8.63;67.29;97998.81;5034236;28;20037;-56
2022/02/17 06:44:13;;;;;;;33.38;4.90;;;;;;;8.59;67.98;98009.22;5031256;28;20037;-55
2022/02/17 06:46:39;;;;;;;49.95;6.90;;;;;;;8.59;68.91;98019.09;5026756;28;20064;-56
2022/02/17 06:49:04;;;;;;;33.03;6.90;;;;;;;8.66;67.76;98030.34;5031891;28;20025;-55
2022/02/17 06:51:30;;;;;;;37.60;5.53;;;;;;;8.64;67.70;98038.63;5038769;28;20037;-54
2022/02/17 06:53:55;;;;;;;36.22;4.82;;;;;;;8.77;65.50;98041.91;5030905;28;20075;-55
2022/02/17 06:56:21;;;;;;;40.35;6.40;;;;;;;8.75;66.80;98047.50;5039938;28;20060;-55
2022/02/17 06:58:46;;;;;;;47.70;6.57;;;;;;;8.73;66.45;98052.28;5027249;28;20026;-55
2022/02/17 07:01:12;;;;;;;33.15;4.75;;;;;;;8.72;65.84;98040.00;5036443;28;20068;-55
2022/02/17 07:03:38;;;;;;;48.67;7.60;;;;;;;8.69;66.31;98045.06;5034041;28;20079;-55
2022/02/17 07:06:04;;;;;;;45.03;5.85;;;;;;;8.66;66.74;98053.56;5039759;28;20549;-56
2022/02/17 07:08:29;;;;;;;39.42;5.80;;;;;;;8.67;67.61;98045.31;5041873;28;20031;-56
2022/02/17 07:10:55;;;;;;;32.67;4.93;;;;;;;8.64;66.50;98043.97;5032370;28;20476;-56
2022/02/17 07:13:27;;;;;;;33.05;6.15;;;;;;;8.60;67.04;98058.09;5029622;28;20380;-56
2022/02/17 07:15:53;;;;;;;46.42;6.85;;;;;;;8.48;67.34;98070.84;5027785;28;20045;-56
2022/02/17 07:18:19;;;;;;;30.42;4.25;;;;;;;8.95;57.36;98062.81;5034300;28;20080;-55
2022/02/17 07:20:45;;;;;;;33.03;5.10;;;;;;;8.96;58.36;98082.31;5036236;28;20053;-55
2022/02/17 07:23:11;;;;;;;26.52;3.97;;;;;;;9.10;56.83;98096.84;5032750;28;20102;-55
2022/02/17 07:25:37;;;;;;;34.65;5.53;;;;;;;9.38;56.08;98106.31;5034563;28;20499;-55
2022/02/17 07:28:02;;;;;;;27.50;4.30;;;;;;;9.13;56.62;98084.81;5036045;28;20064;-54
2022/02/17 07:30:28;;;;;;;35.10;5.63;;;;;;;8.93;58.92;98104.22;5031940;28;20049;-55
2022/02/17 07:32:53;;;;;;;37.50;5.60;;;;;;;8.90;58.99;98110.09;5028558;28;20025;-55
2022/02/17 07:35:19;;;;;;;50.17;5.50;;;;;;;8.90;59.11;98099.41;5031045;28;20025;-54
2022/02/17 07:37:44;;;;;;;35.25;4.20;;;;;;;8.87;59.51;98102.59;5031402;28;20617;-55
2022/02/17 07:40:11;;;;;;;33.60;5.53;;;;;;;8.87;59.31;98132.00;5033408;28;20506;-58
2022/02/17 07:42:38;;;;;;;39.58;5.03;;;;;;;9.14;58.30;98132.69;5027587;28;20026;-55
2022/02/17 07:45:04;;;;;;;33.55;4.97;;;;;;;9.24;57.96;98124.72;5028096;28;20083;-56
2022/02/17 07:47:29;;;;;;;30.00;4.20;;;;;;;9.09;59.26;98132.66;5026870;28;20037;-56
2022/02/17 07:49:56;;;;;;;31.13;5.35;;;;;;;9.34;60.94;98141.88;5029584;28;20032;-55
2022/02/17 07:52:23;;;;;;;45.90;6.40;;;;;;;9.43;60.25;98145.63;5031663;28;20098;-54
2022/02/17 07:54:48;;;;;;;42.03;5.25;;;;;;;9.05;62.47;98174.31;5036859;28;20025;-55
2022/02/17 07:57:13;;;;;;;41.15;6.05;;;;;;;8.87;62.78;98164.84;5034239;28;20037;-55
2022/02/17 07:59:39;;;;;;;43.28;4.95;;;;;;;8.76;64.31;98158.66;5031284;28;20025;-55
2022/02/17 08:02:04;;;;;;;41.53;5.03;;;;;;;8.59;64.63;98166.78;5032396;28;20046;-54
2022/02/17 08:04:35;;;;;;;36.80;4.70;;;;;;;9.35;60.43;98180.91;5037964;28;20427;-55
2022/02/17 08:07:01;;;;;;;32.00;5.53;;;;;;;10.04;56.40;98183.31;5037587;28;20045;-55
2022/02/17 08:09:26;;;;;;;33.85;4.57;;;;;;;10.02;56.10;98214.09;5039986;28;20431;-56
2022/02/17 08:11:52;;;;;;;37.72;5.93;;;;;;;10.31;53.16;98183.13;5040420;28;20049;-55
2022/02/17 08:14:17;;;;;;;39.95;5.20;;;;;;;10.00;54.16;98197.47;5030140;28;20387;-55
2022/02/17 08:16:43;;;;;;;34.38;4.75;;;;;;;9.79;54.37;98188.59;5036371;28;20066;-54
2022/02/17 08:19:09;;;;;;;36.55;4.93;;;;;;;9.59;54.95;98206.19;5035473;28;20397;-57
2022/02/17 08:21:35;;;;;;;45.65;5.25;;;;;;;9.24;55.63;98228.97;5038169;28;20041;-54
2022/02/17 08:24:01;;;;;;;28.17;3.75;;;;;;;9.08;57.76;98221.91;5035304;28;20218;-55
2022/02/17 08:26:26;;;;;;;42.95;5.82;;;;;;;8.98;58.11;98229.88;5031070;28;20049;-55
2022/02/17 08:28:57;;;;;;;25.05;4.63;;;;;;;9.90;54.77;98235.72;5044747;28;20029;-56
2022/02/17 08:31:26;;;;;;;34.15;4.93;;;;;;;10.73;53.27;98242.91;5034411;28;20399;-55
2022/02/17 08:33:52;;;;;;;30.58;4.28;;;;;;;10.87;52.16;98249.34;5037620;28;20033;-56
2022/02/17 08:36:17;;;;;;;30.08;4.95;;;;;;;11.07;49.34;98253.09;5039723;28;20036;-55
2022/02/17 08:38:43;;;;;;;30.65;4.35;;;;;;;10.47;50.19;98248.22;5031654;28;20033;-55
2022/02/17 08:41:12;;;;;;;34.38;5.38;;;;;;;10.63;49.40;98237.53;5030378;28;20541;-56
2022/02/17 08:43:37;;;;;;;31.90;5.28;;;;;;;10.84;48.93;98247.19;5034600;28;20063;-54
2022/02/17 08:46:03;;;;;;;33.42;4.95;;;;;;;11.49;48.00;98251.97;5050499;28;20049;-54
2022/02/17 08:48:28;;;;;;;28.33;4.88;;;;;;;11.39;48.48;98261.63;5034729;28;20041;-55
2022/02/17 08:50:54;;;;;;;26.05;4.63;;;;;;;11.61;47.37;98244.44;5040574;28;20044;-55
2022/02/17 08:53:19;;;;;;;19.90;3.65;;;;;;;11.54;44.74;98268.06;5036557;28;20030;-55
2022/02/17 08:55:44;;;;;;;26.05;4.40;;;;;;;11.77;44.18;98272.81;5036070;28;20411;-56
2022/02/17 08:58:10;;;;;;;30.40;4.68;;;;;;;11.77;45.15;98285.44;5034557;28;20033;-55
2022/02/17 09:00:36;;;;;;;26.55;4.68;;;;;;;11.79;46.82;98272.56;5034567;28;20057;-55
2022/02/17 09:03:01;;;;;;;25.70;4.80;;;;;;;11.73;47.14;98282.50;5037650;28;20034;-55
2022/02/17 09:05:27;;;;;;;30.58;4.72;;;;;;;11.64;47.58;98289.50;5034480;28;20092;-55
2022/02/17 09:07:53;;;;;;;33.80;4.95;;;;;;;11.80;46.62;98299.09;5033956;28;20071;-56
2022/02/17 09:10:19;;;;;;;25.08;5.22;;;;;;;11.68;47.66;98295.91;5037940;28;20029;-56
2022/02/17 09:12:45;;;;;;;32.25;5.53;;;;;;;11.63;47.79;98303.97;5029984;28;20064;-55
2022/02/17 09:15:10;;;;;;;37.13;5.90;;;;;;;12.17;46.93;98313.25;5029796;28;20021;-55
2022/02/17 09:17:36;;;;;;;36.70;5.35;;;;;;;12.34;46.22;98319.09;5029215;28;20041;-55
2022/02/17 09:20:04;;;;;;;26.90;4.82;;;;;;;12.33;45.70;98296.00;5029425;28;20125;-55
2022/02/17 09:22:29;;;;;;;35.03;5.50;;;;;;;11.88;48.17;98300.44;5032424;28;20104;-55
2022/02/17 09:24:54;;;;;;;35.45;5.20;;;;;;;11.77;50.11;98307.72;5034440;28;20040;-54
2022/02/17 09:27:20;;;;;;;34.65;5.10;;;;;;;12.00;48.18;98324.31;5038769;28;20057;-55
2022/02/17 09:29:46;;;;;;;31.52;5.47;;;;;;;11.85;47.12;98323.25;5038619;28;20458;-55
2022/02/17 09:32:11;;;;;;;37.33;5.97;;;;;;;12.18;46.75;98331.81;5032276;28;20276;-54
2022/02/17 09:34:37;;;;;;;36.55;5.60;;;;;;;12.25;46.54;98336.84;5035128;28;20053;-55
2022/02/17 09:37:03;;;;;;;28.35;5.00;;;;;;;11.37;47.42;98330.06;5039919;28;20122;-55
2022/02/17 09:39:29;;;;;;;28.13;5.07;;;;;;;12.11;46.72;98330.47;5033388;28;20487;-55
2022/02/17 09:41:55;;;;;;;32.67;5.55;;;;;;;11.71;47.27;98322.22;5033033;28;20048;-55
2022/02/17 09:44:21;;;;;;;36.58;5.55;;;;;;;11.05;48.02;98354.44;5036938;28;20088;-55
2022/02/17 09:46:47;;;;;;;30.35;5.40;;;;;;;10.59;49.31;98344.44;5038219;28;20041;-55
2022/02/17 09:49:16;;;;;;;28.45;5.30;;;;;;;10.54;50.29;98318.44;5031719;28;20057;-55
2022/02/17 09:51:43;;;;;;;36.67;5.68;;;;;;;10.69;50.39;98347.16;5031018;28;20415;-54
2022/02/17 09:54:11;;;;;;;43.47;6.55;;;;;;;11.55;48.54;98350.16;5032799;28;20378;-55
2022/02/17 09:56:37;;;;;;;26.27;4.82;;;;;;;12.42;46.55;98366.09;5033702;28;20045;-56
2022/02/17 09:59:03;;;;;;;24.92;4.82;;;;;;;11.36;48.70;98358.75;5041712;28;20032;-55
2022/02/17 10:01:28;;;;;;;28.55;4.75;;;;;;;12.07;45.71;98365.94;5034636;28;20041;-54
2022/02/17 10:04:13;;;;;;;31.83;4.68;;;;;;;12.26;45.39;98374.22;5029384;28;20026;-55
2022/02/17 10:06:41;;;;;;;27.35;4.47;;;;;;;12.54;44.43;98382.69;5032299;28;20155;-56
2022/02/17 10:09:10;;;;;;;32.95;4.82;;;;;;;12.41;44.46;98392.16;5028359;28;20549;-56
2022/02/17 10:11:35;;;;;;;32.95;5.22;;;;;;;12.90;44.52;98393.25;5028621;28;20396;-57
2022/02/17 10:14:06;;;;;;;25.75;4.88;;;;;;;13.23;43.36;98398.97;5032361;28;20083;-55
2022/02/17 10:16:50;;;;;;;28.35;5.78;;;;;;;13.35;43.13;98402.16;5031052;28;20045;-55
2022/02/17 10:19:16;;;;;;;28.50;4.15;;;;;;;13.28;41.27;98393.59;5028498;28;20057;-56
2022/02/17 10:21:41;;;;;;;31.52;4.13;;;;;;;13.19;42.92;98414.09;5033369;28;20041;-56
2022/02/17 10:24:07;;;;;;;25.83;4.60;;;;;;;13.10;42.56;98400.41;5028284;28;20044;-56
2022/02/17 10:26:32;;;;;;;24.90;4.93;;;;;;;13.10;42.90;98416.53;5027741;28;20034;-57
2022/02/17 10:28:59;;;;;;;27.98;3.95;;;;;;;13.34;42.53;98403.25;5030063;28;20052;-56
2022/02/17 10:31:28;;;;;;;24.98;4.82;;;;;;;12.93;43.63;98423.09;5032391;28;20041;-56
2022/02/17 10:33:54;;;;;;;29.98;4.75;;;;;;;12.93;42.36;98428.50;5028097;28;20483;-56
2022/02/17 10:36:36;;;;;;;27.55;4.43;;;;;;;13.12;42.14;98439.41;5040965;28;20069;-56
2022/02/17 10:39:12;;;;;;;24.83;3.97;;;;;;;13.52;41.08;98434.84;5033705;28;20110;-56
2022/02/17 10:41:57;;;;;;;29.05;4.72;;;;;;;14.15;40.83;98431.34;5031925;28;20056;-56
2022/02/17 10:44:34;;;;;;;26.27;4.95;;;;;;;13.76;42.35;98444.91;5029184;28;20041;-56
2022/02/17 10:47:23;;;;;;;25.45;4.68;;;;;;;13.81;42.35;98428.72;5030901;28;20049;-56
2022/02/17 10:49:50;;;;;;;24.95;4.35;;;;;;;12.91;42.10;98437.91;5043584;28;20124;-56
2022/02/17 10:52:33;;;;;;;36.17;5.85;;;;;;;12.02;44.83;98446.50;5033641;28;20149;-54
2022/02/17 10:55:09;;;;;;;32.05;5.30;;;;;;;11.65;45.78;98454.81;5032542;28;20486;-54
2022/02/17 10:57:35;;;;;;;25.25;4.78;;;;;;;11.29;47.33;98459.34;5027361;28;20042;-56
2022/02/17 11:00:11;;;;;;;42.83;5.85;;;;;;;10.85;50.45;98460.56;5027668;28;20018;-55
2022/02/17 11:02:38;;;;;;;39.50;5.60;;;;;;;10.67;51.41;98463.72;5010675;28;20060;-55
2022/02/17 11:05:07;;;;;;;41.08;4.38;;;;;;;10.43;51.80;98464.13;5014198;28;20022;-54
2022/02/17 11:07:35;;;;;;;33.88;5.38;;;;;;;10.37;52.38;98459.81;5017934;28;20037;-55
2022/02/17 11:10:01;;;;;;;46.25;5.13;;;;;;;10.37;50.92;98473.22;5033806;28;20127;-54
2022/02/17 11:12:27;;;;;;;25.13;4.68;;;;;;;10.54;52.79;98473.03;5008791;28;20017;-55
2022/02/17 11:14:53;;;;;;;33.90;4.55;;;;;;;10.54;54.27;98463.13;5010860;28;20029;-55
2022/02/17 11:17:19;;;;;;;45.22;5.82;;;;;;;10.65;53.88;98466.66;4991165;28;20566;-55
2022/02/17 11:19:44;;;;;;;39.70;5.13;;;;;;;10.83;53.88;98481.47;5007824;28;20034;-54
2022/02/17 11:22:11;;;;;;;32.92;4.75;;;;;;;10.80;52.95;98463.22;4989399;28;20868;-54
2022/02/17 11:24:47;;;;;;;33.08;4.95;;;;;;;10.81;52.20;98467.53;5012300;28;20114;-54